ENFB/FBU METAR and TAF weather

Enter ICAO airport designator
Station Type Date Time Source
ENFB METAR 2022/05/26 04:20 UTC NOAA

ENFB 260420Z AUTO 27025KT 9999NDV FEW019/// 10/06 Q0999 W///S/


Station Type Date Time Source
ENFB Decoded METAR 2022/05/26 04:20 UTC NOAA

Oslo / Fornebu, Norway (ENFB) 59-54N 010-38E 17M
May 26, 2022 - 12:20 AM EDT / 2022.05.26 0420 UTC
Wind: from the W (270 degrees) at 29 MPH (25 KT):0
Sky conditions: mostly clear
Temperature: 50 F (10 C)
Dew Point: 42 F (6 C)
Relative Humidity: 76%
Pressure (altimeter): 29.50 in. Hg (0999 hPa)
ob: ENFB 260420Z AUTO 27025KT 9999NDV FEW019/// 10/06 Q0999 W///S/
cycle: 4

Station Type Date Time Source
ENFB TAF UTC NOAA

Error!

Example: see airport list